sensor_id;sensor_type;location;lat;lon;timestamp;temperature;humidity
27741;DHT22;15134;48.768;9.184;2022-11-24T00:00:51;8.10;99.90
27741;DHT22;15134;48.768;9.184;2022-11-24T00:03:18;8.10;99.90
27741;DHT22;15134;48.768;9.184;2022-11-24T00:05:43;8.10;99.90
27741;DHT22;15134;48.768;9.184;2022-11-24T00:08:09;8.20;99.90
27741;DHT22;15134;48.768;9.184;2022-11-24T00:10:35;8.30;99.90
27741;DHT22;15134;48.768;9.184;2022-11-24T00:13:00;8.30;99.90
27741;DHT22;15134;48.768;9.184;2022-11-24T00:15:26;8.30;99.90
27741;DHT22;15134;48.768;9.184;2022-11-24T00:17:52;8.30;99.90
27741;DHT22;15134;48.768;9.184;2022-11-24T00:20:18;8.30;99.90
27741;DHT22;15134;48.768;9.184;2022-11-24T00:22:43;8.40;99.90
27741;DHT22;15134;48.768;9.184;2022-11-24T00:25:09;8.40;99.90
27741;DHT22;15134;48.768;9.184;2022-11-24T00:27:35;8.40;99.90
27741;DHT22;15134;48.768;9.184;2022-11-24T00:30:00;8.40;99.90
27741;DHT22;15134;48.768;9.184;2022-11-24T00:32:29;8.40;99.90
27741;DHT22;15134;48.768;9.184;2022-11-24T00:34:55;8.40;99.90
27741;DHT22;15134;48.768;9.184;2022-11-24T00:37:21;8.40;99.90
27741;DHT22;15134;48.768;9.184;2022-11-24T00:39:47;8.40;99.90
27741;DHT22;15134;48.768;9.184;2022-11-24T00:42:12;8.50;99.90
27741;DHT22;15134;48.768;9.184;2022-11-24T00:44:39;8.50;99.90
27741;DHT22;15134;48.768;9.184;2022-11-24T00:47:04;8.50;99.90
27741;DHT22;15134;48.768;9.184;2022-11-24T00:49:30;8.50;99.90
27741;DHT22;15134;48.768;9.184;2022-11-24T00:51:56;8.50;99.90
27741;DHT22;15134;48.768;9.184;2022-11-24T00:54:22;8.50;99.90
27741;DHT22;15134;48.768;9.184;2022-11-24T00:56:48;8.50;99.90
27741;DHT22;15134;48.768;9.184;2022-11-24T00:59:13;8.40;99.90
27741;DHT22;15134;48.768;9.184;2022-11-24T01:01:39;8.30;99.90
27741;DHT22;15134;48.768;9.184;2022-11-24T01:04:06;8.30;99.90
27741;DHT22;15134;48.768;9.184;2022-11-24T01:06:32;8.20;99.90
27741;DHT22;15134;48.768;9.184;2022-11-24T01:08:59;8.10;99.90
27741;DHT22;15134;48.768;9.184;2022-11-24T01:11:28;8.10;99.90
27741;DHT22;15134;48.768;9.184;2022-11-24T01:14:14;8.10;99.90
27741;DHT22;15134;48.768;9.184;2022-11-24T01:16:40;8.10;99.90
27741;DHT22;15134;48.768;9.184;2022-11-24T01:19:06;8.00;99.90
27741;DHT22;15134;48.768;9.184;2022-11-24T01:21:32;8.00;99.90
27741;DHT22;15134;48.768;9.184;2022-11-24T01:23:58;8.00;99.90
27741;DHT22;15134;48.768;9.184;2022-11-24T01:26:23;8.00;99.90
27741;DHT22;15134;48.768;9.184;2022-11-24T01:28:56;8.00;99.90
27741;DHT22;15134;48.768;9.184;2022-11-24T01:31:23;8.00;99.90
27741;DHT22;15134;48.768;9.184;2022-11-24T01:33:49;8.00;99.90
27741;DHT22;15134;48.768;9.184;2022-11-24T01:36:14;8.00;99.90
27741;DHT22;15134;48.768;9.184;2022-11-24T01:38:40;8.00;99.90
27741;DHT22;15134;48.768;9.184;2022-11-24T01:41:19;8.00;99.90
27741;DHT22;15134;48.768;9.184;2022-11-24T01:43:45;8.10;99.90
27741;DHT22;15134;48.768;9.184;2022-11-24T01:48:43;8.20;99.90
27741;DHT22;15134;48.768;9.184;2022-11-24T01:51:12;8.20;99.90
27741;DHT22;15134;48.768;9.184;2022-11-24T01:53:41;8.30;99.90
27741;DHT22;15134;48.768;9.184;2022-11-24T01:56:08;8.30;99.90
27741;DHT22;15134;48.768;9.184;2022-11-24T01:58:35;8.30;99.90
27741;DHT22;15134;48.768;9.184;2022-11-24T02:01:01;8.40;99.90
27741;DHT22;15134;48.768;9.184;2022-11-24T02:03:31;8.40;99.90
27741;DHT22;15134;48.768;9.184;2022-11-24T02:06:10;8.40;99.90
27741;DHT22;15134;48.768;9.184;2022-11-24T02:11:33;8.50;99.90
27741;DHT22;15134;48.768;9.184;2022-11-24T02:13:59;8.50;99.90
27741;DHT22;15134;48.768;9.184;2022-11-24T02:16:25;8.50;99.90
27741;DHT22;15134;48.768;9.184;2022-11-24T02:18:51;8.50;99.90
27741;DHT22;15134;48.768;9.184;2022-11-24T02:21:18;8.50;99.90
27741;DHT22;15134;48.768;9.184;2022-11-24T02:24:00;8.50;99.90
27741;DHT22;15134;48.768;9.184;2022-11-24T02:26:47;8.40;99.90
27741;DHT22;15134;48.768;9.184;2022-11-24T02:29:14;8.40;99.90
27741;DHT22;15134;48.768;9.184;2022-11-24T02:31:46;8.30;99.90
27741;DHT22;15134;48.768;9.184;2022-11-24T02:34:13;8.30;99.90
27741;DHT22;15134;48.768;9.184;2022-11-24T02:36:39;8.20;99.90
27741;DHT22;15134;48.768;9.184;2022-11-24T02:39:10;8.20;99.90
27741;DHT22;15134;48.768;9.184;2022-11-24T02:41:37;8.20;99.90
27741;DHT22;15134;48.768;9.184;2022-11-24T02:44:04;8.20;99.90
27741;DHT22;15134;48.768;9.184;2022-11-24T02:46:30;8.20;99.90
27741;DHT22;15134;48.768;9.184;2022-11-24T02:48:56;8.20;99.90
27741;DHT22;15134;48.768;9.184;2022-11-24T02:51:22;8.20;99.90
27741;DHT22;15134;48.768;9.184;2022-11-24T02:53:47;8.20;99.90
27741;DHT22;15134;48.768;9.184;2022-11-24T02:56:13;8.20;99.90
27741;DHT22;15134;48.768;9.184;2022-11-24T02:58:39;8.10;99.90
27741;DHT22;15134;48.768;9.184;2022-11-24T03:01:04;8.10;99.90
27741;DHT22;15134;48.768;9.184;2022-11-24T03:03:30;8.10;99.90
27741;DHT22;15134;48.768;9.184;2022-11-24T03:05:56;8.10;99.90
27741;DHT22;15134;48.768;9.184;2022-11-24T03:08:21;8.10;99.90
27741;DHT22;15134;48.768;9.184;2022-11-24T03:10:47;8.10;99.90
27741;DHT22;15134;48.768;9.184;2022-11-24T03:13:13;8.10;99.90
27741;DHT22;15134;48.768;9.184;2022-11-24T03:15:39;8.10;99.90
27741;DHT22;15134;48.768;9.184;2022-11-24T03:18:05;8.00;99.90
27741;DHT22;15134;48.768;9.184;2022-11-24T03:20:31;8.00;99.90
27741;DHT22;15134;48.768;9.184;2022-11-24T03:22:57;8.10;99.90
27741;DHT22;15134;48.768;9.184;2022-11-24T03:25:23;8.10;99.90
27741;DHT22;15134;48.768;9.184;2022-11-24T03:27:48;8.00;99.90
27741;DHT22;15134;48.768;9.184;2022-11-24T03:30:14;8.10;99.90
27741;DHT22;15134;48.768;9.184;2022-11-24T03:32:40;8.00;99.90
27741;DHT22;15134;48.768;9.184;2022-11-24T03:35:07;8.00;99.90
27741;DHT22;15134;48.768;9.184;2022-11-24T03:37:33;8.00;99.90
27741;DHT22;15134;48.768;9.184;2022-11-24T03:39:59;8.00;99.90
27741;DHT22;15134;48.768;9.184;2022-11-24T03:42:24;8.00;99.90
27741;DHT22;15134;48.768;9.184;2022-11-24T03:44:50;8.00;99.90
27741;DHT22;15134;48.768;9.184;2022-11-24T03:47:16;7.90;99.90
27741;DHT22;15134;48.768;9.184;2022-11-24T03:49:41;8.00;99.90
27741;DHT22;15134;48.768;9.184;2022-11-24T03:52:07;8.00;99.90
27741;DHT22;15134;48.768;9.184;2022-11-24T03:54:33;8.00;99.90
27741;DHT22;15134;48.768;9.184;2022-11-24T03:56:59;7.90;99.90
27741;DHT22;15134;48.768;9.184;2022-11-24T03:59:25;7.90;99.90
27741;DHT22;15134;48.768;9.184;2022-11-24T04:01:51;7.90;99.90
27741;DHT22;15134;48.768;9.184;2022-11-24T04:04:16;7.90;99.90
27741;DHT22;15134;48.768;9.184;2022-11-24T04:06:42;7.80;99.90
27741;DHT22;15134;48.768;9.184;2022-11-24T04:09:08;7.90;99.90
27741;DHT22;15134;48.768;9.184;2022-11-24T04:11:34;7.90;99.90
27741;DHT22;15134;48.768;9.184;2022-11-24T04:14:18;7.80;99.90
27741;DHT22;15134;48.768;9.184;2022-11-24T04:16:45;7.80;99.90
27741;DHT22;15134;48.768;9.184;2022-11-24T04:19:11;7.80;99.90
27741;DHT22;15134;48.768;9.184;2022-11-24T04:21:37;7.90;99.90
27741;DHT22;15134;48.768;9.184;2022-11-24T04:24:02;7.90;99.90
27741;DHT22;15134;48.768;9.184;2022-11-24T04:26:28;7.90;99.90
27741;DHT22;15134;48.768;9.184;2022-11-24T04:28:54;7.90;99.90
27741;DHT22;15134;48.768;9.184;2022-11-24T04:31:19;7.90;99.90
27741;DHT22;15134;48.768;9.184;2022-11-24T04:33:45;7.90;99.90
27741;DHT22;15134;48.768;9.184;2022-11-24T04:36:11;7.90;99.90
27741;DHT22;15134;48.768;9.184;2022-11-24T04:38:36;7.90;99.90
27741;DHT22;15134;48.768;9.184;2022-11-24T04:41:03;7.90;99.90
27741;DHT22;15134;48.768;9.184;2022-11-24T04:43:30;8.00;99.90
27741;DHT22;15134;48.768;9.184;2022-11-24T04:45:58;8.00;99.90
27741;DHT22;15134;48.768;9.184;2022-11-24T04:48:24;8.00;99.90
27741;DHT22;15134;48.768;9.184;2022-11-24T04:50:50;8.00;99.90
27741;DHT22;15134;48.768;9.184;2022-11-24T04:53:16;8.00;99.90
27741;DHT22;15134;48.768;9.184;2022-11-24T04:55:41;8.00;99.90
27741;DHT22;15134;48.768;9.184;2022-11-24T04:58:10;8.00;99.90
27741;DHT22;15134;48.768;9.184;2022-11-24T05:00:37;8.00;99.90
27741;DHT22;15134;48.768;9.184;2022-11-24T05:03:03;7.90;99.90
27741;DHT22;15134;48.768;9.184;2022-11-24T05:05:29;7.90;99.90
27741;DHT22;15134;48.768;9.184;2022-11-24T05:07:57;7.90;99.90
27741;DHT22;15134;48.768;9.184;2022-11-24T05:10:22;7.90;99.90
27741;DHT22;15134;48.768;9.184;2022-11-24T05:13:05;7.90;99.90
27741;DHT22;15134;48.768;9.184;2022-11-24T05:15:31;7.80;99.90
27741;DHT22;15134;48.768;9.184;2022-11-24T05:17:57;7.80;99.90
27741;DHT22;15134;48.768;9.184;2022-11-24T05:20:23;7.80;99.90
27741;DHT22;15134;48.768;9.184;2022-11-24T05:22:49;7.70;99.90
27741;DHT22;15134;48.768;9.184;2022-11-24T05:25:14;7.70;99.90
27741;DHT22;15134;48.768;9.184;2022-11-24T05:27:40;7.70;99.90
27741;DHT22;15134;48.768;9.184;2022-11-24T05:30:07;7.70;99.90
27741;DHT22;15134;48.768;9.184;2022-11-24T05:32:32;7.70;99.90
27741;DHT22;15134;48.768;9.184;2022-11-24T05:34:58;7.70;99.90
27741;DHT22;15134;48.768;9.184;2022-11-24T05:37:29;7.70;99.90
27741;DHT22;15134;48.768;9.184;2022-11-24T05:39:55;7.70;99.90
27741;DHT22;15134;48.768;9.184;2022-11-24T05:42:21;7.70;99.90
27741;DHT22;15134;48.768;9.184;2022-11-24T05:45:10;7.70;99.90
27741;DHT22;15134;48.768;9.184;2022-11-24T05:47:37;7.70;99.90
27741;DHT22;15134;48.768;9.184;2022-11-24T05:50:03;7.70;99.90
27741;DHT22;15134;48.768;9.184;2022-11-24T05:52:29;7.70;99.90
27741;DHT22;15134;48.768;9.184;2022-11-24T05:54:55;7.70;99.90
27741;DHT22;15134;48.768;9.184;2022-11-24T05:57:21;7.70;99.90
27741;DHT22;15134;48.768;9.184;2022-11-24T05:59:46;7.80;99.90
27741;DHT22;15134;48.768;9.184;2022-11-24T06:02:12;7.80;99.90
27741;DHT22;15134;48.768;9.184;2022-11-24T06:04:38;7.90;99.90
27741;DHT22;15134;48.768;9.184;2022-11-24T06:07:07;7.90;99.90
27741;DHT22;15134;48.768;9.184;2022-11-24T06:09:37;7.90;99.90
27741;DHT22;15134;48.768;9.184;2022-11-24T06:12:04;7.90;99.90
27741;DHT22;15134;48.768;9.184;2022-11-24T06:14:30;8.00;99.90
27741;DHT22;15134;48.768;9.184;2022-11-24T06:16:56;7.90;99.90
27741;DHT22;15134;48.768;9.184;2022-11-24T06:19:22;8.00;99.90
27741;DHT22;15134;48.768;9.184;2022-11-24T06:21:47;8.00;99.90
27741;DHT22;15134;48.768;9.184;2022-11-24T06:24:13;8.10;99.90
27741;DHT22;15134;48.768;9.184;2022-11-24T06:26:39;8.10;99.90
27741;DHT22;15134;48.768;9.184;2022-11-24T06:29:05;8.00;99.90
27741;DHT22;15134;48.768;9.184;2022-11-24T06:31:31;8.00;99.90
27741;DHT22;15134;48.768;9.184;2022-11-24T06:33:57;8.00;99.90
27741;DHT22;15134;48.768;9.184;2022-11-24T06:36:23;8.00;99.90
27741;DHT22;15134;48.768;9.184;2022-11-24T06:38:50;8.00;99.90
27741;DHT22;15134;48.768;9.184;2022-11-24T06:41:16;8.00;99.90
27741;DHT22;15134;48.768;9.184;2022-11-24T06:43:43;8.10;99.90
27741;DHT22;15134;48.768;9.184;2022-11-24T06:46:10;8.10;99.90
27741;DHT22;15134;48.768;9.184;2022-11-24T06:48:36;8.10;99.90
27741;DHT22;15134;48.768;9.184;2022-11-24T06:51:03;8.10;99.90
27741;DHT22;15134;48.768;9.184;2022-11-24T06:53:31;8.20;99.90
27741;DHT22;15134;48.768;9.184;2022-11-24T06:55:58;8.20;99.90
27741;DHT22;15134;48.768;9.184;2022-11-24T06:58:24;8.20;99.90
27741;DHT22;15134;48.768;9.184;2022-11-24T07:00:49;8.20;99.90
27741;DHT22;15134;48.768;9.184;2022-11-24T07:03:16;8.20;99.90
27741;DHT22;15134;48.768;9.184;2022-11-24T07:05:44;8.20;99.90
27741;DHT22;15134;48.768;9.184;2022-11-24T07:08:10;8.20;99.90
27741;DHT22;15134;48.768;9.184;2022-11-24T07:10:36;8.30;99.90
27741;DHT22;15134;48.768;9.184;2022-11-24T07:13:02;8.30;99.90
27741;DHT22;15134;48.768;9.184;2022-11-24T07:15:29;8.30;99.90
27741;DHT22;15134;48.768;9.184;2022-11-24T07:17:55;8.30;99.90
27741;DHT22;15134;48.768;9.184;2022-11-24T07:20:20;8.30;99.90
27741;DHT22;15134;48.768;9.184;2022-11-24T07:22:46;8.30;99.90
27741;DHT22;15134;48.768;9.184;2022-11-24T07:25:12;8.30;99.90
27741;DHT22;15134;48.768;9.184;2022-11-24T07:27:39;8.30;99.90
27741;DHT22;15134;48.768;9.184;2022-11-24T07:30:06;8.30;99.90
27741;DHT22;15134;48.768;9.184;2022-11-24T07:32:32;8.40;99.90
27741;DHT22;15134;48.768;9.184;2022-11-24T07:34:58;8.30;99.90
27741;DHT22;15134;48.768;9.184;2022-11-24T07:37:25;8.30;99.90
27741;DHT22;15134;48.768;9.184;2022-11-24T07:39:50;8.30;99.90
27741;DHT22;15134;48.768;9.184;2022-11-24T07:42:16;8.30;99.90
27741;DHT22;15134;48.768;9.184;2022-11-24T07:44:42;8.30;99.90
27741;DHT22;15134;48.768;9.184;2022-11-24T07:47:08;8.40;99.90
27741;DHT22;15134;48.768;9.184;2022-11-24T07:49:33;8.40;99.90
27741;DHT22;15134;48.768;9.184;2022-11-24T07:51:59;8.40;99.90
27741;DHT22;15134;48.768;9.184;2022-11-24T07:54:25;8.40;99.90
27741;DHT22;15134;48.768;9.184;2022-11-24T07:56:51;8.40;99.90
27741;DHT22;15134;48.768;9.184;2022-11-24T07:59:17;8.40;99.90
27741;DHT22;15134;48.768;9.184;2022-11-24T08:01:42;8.40;99.90
27741;DHT22;15134;48.768;9.184;2022-11-24T08:04:08;8.40;99.90
27741;DHT22;15134;48.768;9.184;2022-11-24T08:06:34;8.30;99.90
27741;DHT22;15134;48.768;9.184;2022-11-24T08:08:59;8.30;99.90
27741;DHT22;15134;48.768;9.184;2022-11-24T08:11:25;8.40;99.90
27741;DHT22;15134;48.768;9.184;2022-11-24T08:13:51;8.40;99.90
27741;DHT22;15134;48.768;9.184;2022-11-24T08:16:18;8.40;99.90
27741;DHT22;15134;48.768;9.184;2022-11-24T08:18:54;8.40;99.90
27741;DHT22;15134;48.768;9.184;2022-11-24T08:21:21;8.40;99.90
27741;DHT22;15134;48.768;9.184;2022-11-24T08:23:48;8.40;99.90
27741;DHT22;15134;48.768;9.184;2022-11-24T08:26:15;8.40;99.90
27741;DHT22;15134;48.768;9.184;2022-11-24T08:28:42;8.40;99.90
27741;DHT22;15134;48.768;9.184;2022-11-24T08:31:14;8.40;99.90
27741;DHT22;15134;48.768;9.184;2022-11-24T08:33:41;8.30;99.90
27741;DHT22;15134;48.768;9.184;2022-11-24T08:36:10;8.30;99.90
27741;DHT22;15134;48.768;9.184;2022-11-24T08:38:37;8.40;99.90
27741;DHT22;15134;48.768;9.184;2022-11-24T08:41:14;8.40;99.90
27741;DHT22;15134;48.768;9.184;2022-11-24T08:43:40;8.50;99.90
27741;DHT22;15134;48.768;9.184;2022-11-24T08:46:08;8.50;99.90
27741;DHT22;15134;48.768;9.184;2022-11-24T08:48:35;8.50;99.90
27741;DHT22;15134;48.768;9.184;2022-11-24T08:51:10;8.50;99.90
27741;DHT22;15134;48.768;9.184;2022-11-24T08:53:36;8.40;99.90
27741;DHT22;15134;48.768;9.184;2022-11-24T08:56:03;8.40;99.90
27741;DHT22;15134;48.768;9.184;2022-11-24T08:58:29;8.40;99.90
27741;DHT22;15134;48.768;9.184;2022-11-24T09:00:55;8.40;99.90
27741;DHT22;15134;48.768;9.184;2022-11-24T09:03:27;8.40;99.90
27741;DHT22;15134;48.768;9.184;2022-11-24T09:05:53;8.40;99.90
27741;DHT22;15134;48.768;9.184;2022-11-24T09:08:19;8.40;99.90
27741;DHT22;15134;48.768;9.184;2022-11-24T09:10:45;8.50;99.90
27741;DHT22;15134;48.768;9.184;2022-11-24T09:13:11;8.50;99.90
27741;DHT22;15134;48.768;9.184;2022-11-24T09:15:36;8.60;99.90
27741;DHT22;15134;48.768;9.184;2022-11-24T09:18:02;8.60;99.90
27741;DHT22;15134;48.768;9.184;2022-11-24T09:20:28;8.70;99.90
27741;DHT22;15134;48.768;9.184;2022-11-24T09:22:55;8.70;99.90
27741;DHT22;15134;48.768;9.184;2022-11-24T09:25:21;8.70;99.90
27741;DHT22;15134;48.768;9.184;2022-11-24T09:27:48;8.80;99.90
27741;DHT22;15134;48.768;9.184;2022-11-24T09:30:14;8.90;99.90
27741;DHT22;15134;48.768;9.184;2022-11-24T09:32:40;9.00;99.90
27741;DHT22;15134;48.768;9.184;2022-11-24T09:35:06;9.00;99.90
27741;DHT22;15134;48.768;9.184;2022-11-24T09:37:32;9.00;99.90
27741;DHT22;15134;48.768;9.184;2022-11-24T09:39:58;8.90;99.90
27741;DHT22;15134;48.768;9.184;2022-11-24T09:42:54;8.90;99.90
27741;DHT22;15134;48.768;9.184;2022-11-24T09:48:13;8.80;99.90
27741;DHT22;15134;48.768;9.184;2022-11-24T09:50:40;8.80;99.90
27741;DHT22;15134;48.768;9.184;2022-11-24T09:53:16;8.70;99.90
27741;DHT22;15134;48.768;9.184;2022-11-24T09:55:46;8.80;99.90
27741;DHT22;15134;48.768;9.184;2022-11-24T10:01:00;9.00;99.90
27741;DHT22;15134;48.768;9.184;2022-11-24T10:03:36;9.00;99.90
27741;DHT22;15134;48.768;9.184;2022-11-24T10:06:16;9.00;99.90
27741;DHT22;15134;48.768;9.184;2022-11-24T10:14:24;9.20;99.90
27741;DHT22;15134;48.768;9.184;2022-11-24T10:17:16;9.30;99.90
27741;DHT22;15134;48.768;9.184;2022-11-24T10:19:44;9.40;99.90
27741;DHT22;15134;48.768;9.184;2022-11-24T10:22:29;9.60;99.90
27741;DHT22;15134;48.768;9.184;2022-11-24T10:25:14;9.80;99.90
27741;DHT22;15134;48.768;9.184;2022-11-24T10:27:45;9.90;99.90
27741;DHT22;15134;48.768;9.184;2022-11-24T10:30:21;9.90;99.90
27741;DHT22;15134;48.768;9.184;2022-11-24T10:33:02;9.90;99.90
27741;DHT22;15134;48.768;9.184;2022-11-24T10:35:37;9.80;99.90
27741;DHT22;15134;48.768;9.184;2022-11-24T10:38:21;9.70;99.90
27741;DHT22;15134;48.768;9.184;2022-11-24T10:41:06;9.70;99.90
27741;DHT22;15134;48.768;9.184;2022-11-24T10:43:33;9.70;99.90
27741;DHT22;15134;48.768;9.184;2022-11-24T10:48:42;9.80;99.90
27741;DHT22;15134;48.768;9.184;2022-11-24T10:52:21;9.80;99.90
27741;DHT22;15134;48.768;9.184;2022-11-24T10:54:23;9.80;99.90
27741;DHT22;15134;48.768;9.184;2022-11-24T10:56:53;9.80;99.90
27741;DHT22;15134;48.768;9.184;2022-11-24T10:59:23;9.80;99.90
27741;DHT22;15134;48.768;9.184;2022-11-24T11:01:52;9.80;99.90
27741;DHT22;15134;48.768;9.184;2022-11-24T11:04:20;9.90;99.90
27741;DHT22;15134;48.768;9.184;2022-11-24T11:06:46;9.90;99.90
27741;DHT22;15134;48.768;9.184;2022-11-24T11:09:19;9.90;99.90
27741;DHT22;15134;48.768;9.184;2022-11-24T11:11:46;9.80;99.90
27741;DHT22;15134;48.768;9.184;2022-11-24T11:14:32;9.90;99.90
27741;DHT22;15134;48.768;9.184;2022-11-24T11:17:00;9.90;99.90
27741;DHT22;15134;48.768;9.184;2022-11-24T11:19:43;9.90;99.90
27741;DHT22;15134;48.768;9.184;2022-11-24T11:24:35;10.00;99.90
27741;DHT22;15134;48.768;9.184;2022-11-24T11:27:26;10.00;99.90
27741;DHT22;15134;48.768;9.184;2022-11-24T11:29:51;10.10;99.90
27741;DHT22;15134;48.768;9.184;2022-11-24T11:34:48;10.30;99.90
27741;DHT22;15134;48.768;9.184;2022-11-24T11:37:15;10.30;99.90
27741;DHT22;15134;48.768;9.184;2022-11-24T11:39:50;10.30;99.90
27741;DHT22;15134;48.768;9.184;2022-11-24T11:42:42;10.30;99.90
27741;DHT22;15134;48.768;9.184;2022-11-24T11:45:16;10.30;99.90
27741;DHT22;15134;48.768;9.184;2022-11-24T11:47:51;10.30;99.90
27741;DHT22;15134;48.768;9.184;2022-11-24T11:50:25;10.30;99.90
27741;DHT22;15134;48.768;9.184;2022-11-24T11:53:24;10.20;99.90
27741;DHT22;15134;48.768;9.184;2022-11-24T12:10:17;9.70;99.90
27741;DHT22;15134;48.768;9.184;2022-11-24T12:15:47;9.60;99.90
27741;DHT22;15134;48.768;9.184;2022-11-24T12:18:36;9.60;99.90
27741;DHT22;15134;48.768;9.184;2022-11-24T12:30:02;10.20;99.90
27741;DHT22;15134;48.768;9.184;2022-11-24T12:32:43;10.40;99.90
27741;DHT22;15134;48.768;9.184;2022-11-24T12:41:15;10.60;99.90
27741;DHT22;15134;48.768;9.184;2022-11-24T12:43:51;10.60;99.90
27741;DHT22;15134;48.768;9.184;2022-11-24T12:49:32;10.70;99.90
27741;DHT22;15134;48.768;9.184;2022-11-24T12:52:25;10.70;99.90
27741;DHT22;15134;48.768;9.184;2022-11-24T12:54:53;10.70;99.90
27741;DHT22;15134;48.768;9.184;2022-11-24T12:57:28;10.80;99.90
27741;DHT22;15134;48.768;9.184;2022-11-24T13:00:16;10.80;99.90
27741;DHT22;15134;48.768;9.184;2022-11-24T13:03:11;10.90;99.90
27741;DHT22;15134;48.768;9.184;2022-11-24T13:06:00;10.90;99.90
27741;DHT22;15134;48.768;9.184;2022-11-24T13:08:28;10.90;99.90
27741;DHT22;15134;48.768;9.184;2022-11-24T13:10:54;10.90;99.90
27741;DHT22;15134;48.768;9.184;2022-11-24T13:14:20;10.90;99.90
27741;DHT22;15134;48.768;9.184;2022-11-24T13:16:58;10.90;99.90
27741;DHT22;15134;48.768;9.184;2022-11-24T13:19:31;10.90;99.90
27741;DHT22;15134;48.768;9.184;2022-11-24T13:24:37;10.80;99.90
27741;DHT22;15134;48.768;9.184;2022-11-24T13:29:41;10.80;99.90
27741;DHT22;15134;48.768;9.184;2022-11-24T13:37:17;10.70;99.90
27741;DHT22;15134;48.768;9.184;2022-11-24T13:56:02;10.80;99.90
27741;DHT22;15134;48.768;9.184;2022-11-24T13:58:53;10.70;99.90
27741;DHT22;15134;48.768;9.184;2022-11-24T14:01:32;10.60;99.90
27741;DHT22;15134;48.768;9.184;2022-11-24T14:04:20;10.50;99.90
27741;DHT22;15134;48.768;9.184;2022-11-24T14:06:59;10.40;99.90
27741;DHT22;15134;48.768;9.184;2022-11-24T14:09:41;10.30;99.90
27741;DHT22;15134;48.768;9.184;2022-11-24T14:12:19;10.30;99.90
27741;DHT22;15134;48.768;9.184;2022-11-24T14:14:46;10.20;99.90
27741;DHT22;15134;48.768;9.184;2022-11-24T14:19:46;10.10;99.90
27741;DHT22;15134;48.768;9.184;2022-11-24T14:22:21;10.10;99.90
27741;DHT22;15134;48.768;9.184;2022-11-24T14:25:21;10.00;99.90
27741;DHT22;15134;48.768;9.184;2022-11-24T14:27:49;10.00;99.90
27741;DHT22;15134;48.768;9.184;2022-11-24T14:32:55;9.90;99.90
27741;DHT22;15134;48.768;9.184;2022-11-24T14:35:29;9.90;99.90
27741;DHT22;15134;48.768;9.184;2022-11-24T14:37:56;9.90;99.90
27741;DHT22;15134;48.768;9.184;2022-11-24T14:40:49;9.80;99.90
27741;DHT22;15134;48.768;9.184;2022-11-24T14:43:28;9.80;99.90
27741;DHT22;15134;48.768;9.184;2022-11-24T14:46:20;9.80;99.90
27741;DHT22;15134;48.768;9.184;2022-11-24T14:48:50;9.70;99.90
27741;DHT22;15134;48.768;9.184;2022-11-24T14:53:52;9.60;99.90
27741;DHT22;15134;48.768;9.184;2022-11-24T14:56:34;9.60;99.90
27741;DHT22;15134;48.768;9.184;2022-11-24T14:59:00;9.70;99.90
27741;DHT22;15134;48.768;9.184;2022-11-24T15:06:36;9.80;99.90
27741;DHT22;15134;48.768;9.184;2022-11-24T15:09:02;9.90;99.90
27741;DHT22;15134;48.768;9.184;2022-11-24T15:11:32;9.90;99.90
27741;DHT22;15134;48.768;9.184;2022-11-24T15:13:58;9.90;99.90
27741;DHT22;15134;48.768;9.184;2022-11-24T15:16:26;9.90;99.90
27741;DHT22;15134;48.768;9.184;2022-11-24T15:18:58;9.90;99.90
27741;DHT22;15134;48.768;9.184;2022-11-24T15:21:33;9.80;99.90
27741;DHT22;15134;48.768;9.184;2022-11-24T15:24:16;9.70;99.90
27741;DHT22;15134;48.768;9.184;2022-11-24T15:26:43;9.70;99.90
27741;DHT22;15134;48.768;9.184;2022-11-24T15:29:10;9.70;99.90
27741;DHT22;15134;48.768;9.184;2022-11-24T15:31:39;9.70;99.90
27741;DHT22;15134;48.768;9.184;2022-11-24T15:34:06;9.70;99.90
27741;DHT22;15134;48.768;9.184;2022-11-24T15:36:33;9.60;99.90
27741;DHT22;15134;48.768;9.184;2022-11-24T15:38:59;9.50;99.90
27741;DHT22;15134;48.768;9.184;2022-11-24T15:41:28;9.40;99.90
27741;DHT22;15134;48.768;9.184;2022-11-24T15:43:55;9.40;99.90
27741;DHT22;15134;48.768;9.184;2022-11-24T15:46:27;9.30;99.90
27741;DHT22;15134;48.768;9.184;2022-11-24T15:48:53;9.20;99.90
27741;DHT22;15134;48.768;9.184;2022-11-24T15:51:20;9.20;99.90
27741;DHT22;15134;48.768;9.184;2022-11-24T15:53:50;9.10;99.90
27741;DHT22;15134;48.768;9.184;2022-11-24T15:56:24;9.10;99.90
27741;DHT22;15134;48.768;9.184;2022-11-24T15:58:50;9.10;99.90
27741;DHT22;15134;48.768;9.184;2022-11-24T16:01:16;9.00;99.90
27741;DHT22;15134;48.768;9.184;2022-11-24T16:03:42;9.10;99.90
27741;DHT22;15134;48.768;9.184;2022-11-24T16:06:12;9.00;99.90
27741;DHT22;15134;48.768;9.184;2022-11-24T16:08:39;9.00;99.90
27741;DHT22;15134;48.768;9.184;2022-11-24T16:11:05;9.00;99.90
27741;DHT22;15134;48.768;9.184;2022-11-24T16:13:31;8.90;99.90
27741;DHT22;15134;48.768;9.184;2022-11-24T16:15:59;8.90;99.90
27741;DHT22;15134;48.768;9.184;2022-11-24T16:18:25;8.80;99.90
27741;DHT22;15134;48.768;9.184;2022-11-24T16:20:51;8.80;99.90
27741;DHT22;15134;48.768;9.184;2022-11-24T16:23:17;8.70;99.90
27741;DHT22;15134;48.768;9.184;2022-11-24T16:25:43;8.70;99.90
27741;DHT22;15134;48.768;9.184;2022-11-24T16:28:09;8.60;99.90
27741;DHT22;15134;48.768;9.184;2022-11-24T16:30:35;8.60;99.90
27741;DHT22;15134;48.768;9.184;2022-11-24T16:33:04;8.60;99.90
27741;DHT22;15134;48.768;9.184;2022-11-24T16:35:33;8.60;99.90
27741;DHT22;15134;48.768;9.184;2022-11-24T16:37:58;8.60;99.90
27741;DHT22;15134;48.768;9.184;2022-11-24T16:40:24;8.50;99.90
27741;DHT22;15134;48.768;9.184;2022-11-24T16:42:51;8.50;99.90
27741;DHT22;15134;48.768;9.184;2022-11-24T16:45:17;8.40;99.90
27741;DHT22;15134;48.768;9.184;2022-11-24T16:47:43;8.30;99.90
27741;DHT22;15134;48.768;9.184;2022-11-24T16:50:10;8.20;99.90
27741;DHT22;15134;48.768;9.184;2022-11-24T16:52:36;8.20;99.90
27741;DHT22;15134;48.768;9.184;2022-11-24T16:55:04;8.20;99.90
27741;DHT22;15134;48.768;9.184;2022-11-24T16:57:30;8.10;99.90
27741;DHT22;15134;48.768;9.184;2022-11-24T16:59:55;8.10;99.90
27741;DHT22;15134;48.768;9.184;2022-11-24T17:02:21;8.00;99.90
27741;DHT22;15134;48.768;9.184;2022-11-24T17:04:47;8.00;99.90
27741;DHT22;15134;48.768;9.184;2022-11-24T17:07:17;8.00;99.90
27741;DHT22;15134;48.768;9.184;2022-11-24T17:09:42;8.00;99.90
27741;DHT22;15134;48.768;9.184;2022-11-24T17:12:08;8.00;99.90
27741;DHT22;15134;48.768;9.184;2022-11-24T17:14:34;8.00;99.90
27741;DHT22;15134;48.768;9.184;2022-11-24T17:17:00;7.90;99.90
27741;DHT22;15134;48.768;9.184;2022-11-24T17:19:26;7.90;99.90
27741;DHT22;15134;48.768;9.184;2022-11-24T17:21:51;7.90;99.90
27741;DHT22;15134;48.768;9.184;2022-11-24T17:24:18;7.90;99.90
27741;DHT22;15134;48.768;9.184;2022-11-24T17:26:44;7.90;99.90
27741;DHT22;15134;48.768;9.184;2022-11-24T17:29:10;7.90;99.90
27741;DHT22;15134;48.768;9.184;2022-11-24T17:31:36;7.80;99.90
27741;DHT22;15134;48.768;9.184;2022-11-24T17:34:05;7.90;99.90
27741;DHT22;15134;48.768;9.184;2022-11-24T17:36:32;7.80;99.90